Time;durP1;ratioP1;P1;durP2;ratioP2;P2;SDS_P1;SDS_P2;PMS_P1;PMS_P2;Temp;Humidity;BMP_temperature;BMP_pressure;BME280_temperature;BME280_humidity;BME280_pressure;Samples;Min_cycle;Max_cycle;Signal;HPM_P1;HPM_P2
2022/04/01 00:02:47;;;;;;;33.28;16.35;;;;;;;5.85;68.43;100449.78;10336602;28;20038;-72
2022/04/01 00:07:48;;;;;;;40.40;17.13;;;;;;;5.14;68.63;100305.75;10374299;28;20049;-72
2022/04/01 00:12:48;;;;;;;30.90;15.98;;;;;;;4.87;69.08;100298.44;10375423;28;20041;-72
2022/04/01 00:17:50;;;;;;;28.83;15.30;;;;;;;5.16;70.29;100368.84;10373698;28;20072;-72
2022/04/01 00:22:50;;;;;;;36.67;16.63;;;;;;;5.61;69.86;100473.84;10343632;28;20117;-73
2022/04/01 00:27:51;;;;;;;35.60;15.23;;;;;;;5.65;70.11;100462.03;10333195;28;20053;-72
2022/04/01 00:32:52;;;;;;;27.92;15.23;;;;;;;5.55;70.87;100461.19;10333890;28;20145;-72
2022/04/01 00:37:53;;;;;;;26.10;15.57;;;;;;;5.61;70.44;100466.75;10332613;28;20074;-72
2022/04/01 00:42:54;;;;;;;29.30;15.38;;;;;;;5.59;70.70;100465.22;10333594;28;20566;-73
2022/04/01 00:48:01;;;;;;;30.30;17.17;;;;;;;5.06;71.46;100384.59;10333037;28;20121;-72
2022/04/01 00:53:02;;;;;;;37.63;17.73;;;;;;;5.34;71.20;100450.69;10332682;28;20482;-72
2022/04/01 00:58:05;;;;;;;48.95;20.45;;;;;;;5.01;71.65;100421.84;10332197;28;20402;-72
2022/04/01 01:03:07;;;;;;;42.38;18.63;;;;;;;5.12;72.02;100491.22;10347486;28;20486;-72
2022/04/01 01:08:09;;;;;;;28.70;15.50;;;;;;;4.44;72.64;100382.84;10331928;28;20125;-73
2022/04/01 01:13:10;;;;;;;30.90;16.60;;;;;;;5.24;72.57;100534.94;10331829;28;20437;-72
2022/04/01 01:18:16;;;;;;;32.05;17.05;;;;;;;5.19;73.95;100529.22;10332005;28;20047;-72
2022/04/01 01:23:17;;;;;;;28.27;15.23;;;;;;;5.12;72.73;100518.38;10353954;28;20524;-72
2022/04/01 01:28:17;;;;;;;31.25;14.52;;;;;;;4.20;71.73;100375.19;10370600;28;20560;-72
2022/04/01 01:33:25;;;;;;;26.08;14.70;;;;;;;4.75;73.77;100449.50;10364299;28;20073;-71
2022/04/01 01:38:26;;;;;;;33.53;16.77;;;;;;;4.02;72.68;100346.81;10332369;28;20066;-72
2022/04/01 01:43:27;;;;;;;46.67;20.65;;;;;;;4.65;73.38;100474.94;10339213;28;20038;-72
2022/04/01 01:48:28;;;;;;;29.25;15.40;;;;;;;4.41;72.74;100412.03;10372098;28;20521;-72
2022/04/01 01:58:48;;;;;;;33.30;15.98;;;;;;;4.49;73.28;100476.19;10371349;28;20053;-72
2022/04/01 02:03:52;;;;;;;29.88;15.43;;;;;;;4.57;74.21;100493.97;10371884;28;20050;-72
2022/04/01 02:08:54;;;;;;;24.42;14.43;;;;;;;4.45;73.79;100447.63;10374363;28;20489;-72
2022/04/01 02:13:55;;;;;;;32.97;16.27;;;;;;;3.59;73.66;100338.94;10379365;28;20050;-71
2022/04/01 02:18:55;;;;;;;28.65;15.98;;;;;;;3.69;74.50;100360.06;10379515;28;21059;-72
2022/04/01 02:23:56;;;;;;;31.45;16.35;;;;;;;4.57;74.40;100502.69;10379214;28;20037;-72
2022/04/01 02:28:59;;;;;;;35.85;17.05;;;;;;;4.50;74.63;100504.16;10378926;28;20508;-72
2022/04/01 02:34:00;;;;;;;32.35;14.05;;;;;;;4.53;74.40;100506.53;10373513;28;20042;-72
2022/04/01 02:39:01;;;;;;;35.20;17.50;;;;;;;3.54;74.16;100356.88;10371731;28;20510;-71
2022/04/01 02:44:08;;;;;;;33.58;17.02;;;;;;;2.83;74.83;100251.34;10362186;28;20506;-71
2022/04/01 02:49:13;;;;;;;26.77;14.38;;;;;;;4.30;75.87;100512.81;10365418;28;20041;-74
2022/04/01 02:54:14;;;;;;;23.95;14.65;;;;;;;4.22;75.15;100541.53;10363593;28;20426;-72
2022/04/01 02:59:15;;;;;;;30.77;15.45;;;;;;;4.18;75.02;100540.09;10363330;28;20096;-71
2022/04/01 03:04:15;;;;;;;30.42;12.57;;;;;;;4.09;75.34;100513.59;10363252;28;20080;-73
2022/04/01 03:09:16;;;;;;;25.13;13.93;;;;;;;3.79;74.84;100473.97;10363415;28;20045;-71
2022/04/01 03:14:17;;;;;;;25.58;13.38;;;;;;;4.21;74.43;100518.81;10364613;28;20069;-74
2022/04/01 03:19:18;;;;;;;28.98;13.05;;;;;;;4.44;73.91;100516.97;10360661;28;20053;-72
2022/04/01 03:24:20;;;;;;;32.72;14.68;;;;;;;3.61;74.32;100398.28;10336434;28;20062;-72
2022/04/01 03:29:20;;;;;;;36.67;15.18;;;;;;;4.45;74.59;100550.22;10334896;28;20051;-72
2022/04/01 03:34:22;;;;;;;27.58;14.95;;;;;;;3.87;74.00;100438.25;10335938;28;20490;-72
2022/04/01 03:39:24;;;;;;;27.30;13.77;;;;;;;4.74;74.75;100539.97;10335761;28;20566;-72
2022/04/01 03:44:26;;;;;;;23.33;12.32;;;;;;;4.78;74.28;100521.16;10340204;28;20045;-72
2022/04/01 03:49:31;;;;;;;22.30;12.93;;;;;;;5.03;74.20;100554.19;10363738;28;20090;-72
2022/04/01 03:54:34;;;;;;;409.48;189.30;;;;;;;5.15;74.27;100538.34;10356136;28;20041;-73
2022/04/01 03:59:41;;;;;;;118.45;51.72;;;;;;;4.99;74.58;100494.84;10372977;28;20080;-72
2022/04/01 04:04:43;;;;;;;383.67;142.52;;;;;;;5.13;74.48;100506.03;10376166;28;20056;-72
2022/04/01 04:09:44;;;;;;;165.57;71.30;;;;;;;5.52;75.06;100557.16;10349346;28;20046;-72
2022/04/01 04:14:51;;;;;;;69.18;32.83;;;;;;;5.54;75.34;100512.22;10362626;28;20050;-73
2022/04/01 04:20:02;;;;;;;38.30;19.08;;;;;;;6.05;76.58;100551.75;10361657;28;20141;-73
2022/04/01 04:25:10;;;;;;;28.92;15.90;;;;;;;5.52;74.40;100420.13;10365753;28;20497;-73
2022/04/01 04:30:11;;;;;;;27.85;13.85;;;;;;;6.09;74.49;100473.19;10372137;28;20073;-74
2022/04/01 04:35:12;;;;;;;25.02;13.95;;;;;;;6.71;74.07;100534.50;10368772;28;20145;-72
2022/04/01 04:40:17;;;;;;;31.30;17.58;;;;;;;6.60;74.20;100487.94;10370171;28;20054;-72
2022/04/01 04:45:19;;;;;;;30.75;15.23;;;;;;;7.04;74.21;100515.59;10356144;28;20128;-72
2022/04/01 04:50:21;;;;;;;26.95;15.65;;;;;;;7.23;73.76;100527.91;10346122;28;20053;-72
2022/04/01 04:55:24;;;;;;;38.45;17.23;;;;;;;7.37;72.98;100509.97;10352301;28;20497;-72
2022/04/01 05:00:25;;;;;;;40.53;19.58;;;;;;;7.47;72.82;100489.63;10371676;28;20056;-72
2022/04/01 05:05:45;;;;;;;33.67;17.80;;;;;;;7.98;73.28;100520.03;10399716;28;20555;-72
2022/04/01 05:10:55;;;;;;;40.97;21.00;;;;;;;8.06;72.47;100540.47;10372948;28;20515;-72
2022/04/01 05:16:07;;;;;;;35.55;18.27;;;;;;;7.96;71.57;100471.75;10372751;28;20441;-72
2022/04/01 05:21:22;;;;;;;31.52;18.55;;;;;;;8.55;71.82;100504.78;10367921;28;20093;-72
2022/04/01 05:26:38;;;;;;;115.38;56.30;;;;;;;8.44;70.34;100460.03;10371621;28;20099;-72
2022/04/01 05:32:00;;;;;;;100.40;53.83;;;;;;;9.00;70.40;100493.25;10355298;28;20037;-74
2022/04/01 05:37:02;;;;;;;92.57;48.55;;;;;;;9.06;69.28;100444.97;10367534;28;20628;-71
2022/04/01 05:42:07;;;;;;;33.22;20.13;;;;;;;8.93;68.25;100332.44;10372969;28;20132;-71
2022/04/01 05:47:08;;;;;;;35.88;18.40;;;;;;;9.95;67.63;100451.66;10380462;28;20052;-72
2022/04/01 05:52:11;;;;;;;25.60;14.23;;;;;;;9.59;67.15;100363.53;10409379;28;20107;-72
2022/04/01 05:57:12;;;;;;;25.08;13.77;;;;;;;10.39;66.91;100456.78;10379303;28;20092;-72
2022/04/01 06:02:33;;;;;;;23.30;13.07;;;;;;;10.97;65.90;100502.81;10350084;28;20117;-71
2022/04/01 06:07:50;;;;;;;18.17;12.48;;;;;;;11.31;65.41;100494.66;10337251;28;20418;-73
2022/04/01 06:13:14;;;;;;;16.85;11.82;;;;;;;10.42;64.90;100273.22;10378805;28;20568;-73
2022/04/01 06:18:26;;;;;;;;;;;;;;;12.15;63.28;100483.56;10379458;28;20037;-71
2022/04/01 06:23:33;;;;;;;22.45;12.95;;;;;;;11.48;62.32;100374.88;10373168;28;20141;-71
2022/04/01 06:28:45;;;;;;;18.70;11.98;;;;;;;12.38;61.42;100500.41;10358806;28;20041;-71
2022/04/01 06:34:03;;;;;;;15.27;11.65;;;;;;;12.79;59.93;100498.28;10363587;28;20046;-71
2022/04/01 06:39:09;;;;;;;18.35;11.82;;;;;;;11.91;58.83;100338.13;10360445;28;20054;-71
2022/04/01 06:44:10;;;;;;;19.88;11.50;;;;;;;12.88;59.18;100458.22;10365362;28;20042;-71
2022/04/01 06:49:11;;;;;;;19.00;12.85;;;;;;;13.00;58.69;100489.59;10372964;28;20109;-72
2022/04/01 06:54:12;;;;;;;18.45;12.30;;;;;;;13.22;57.92;100495.94;10357212;28;20387;-72
2022/04/01 06:59:13;;;;;;;23.42;12.52;;;;;;;13.06;57.25;100441.91;10371165;28;20136;-71
2022/04/01 07:04:15;;;;;;;26.05;13.73;;;;;;;13.06;56.87;100448.06;10360696;28;20092;-72
2022/04/01 07:09:15;;;;;;;26.88;14.32;;;;;;;12.93;56.95;100411.34;10358331;28;20072;-73
2022/04/01 07:14:16;;;;;;;26.40;12.52;;;;;;;13.29;56.36;100447.22;10358849;28;20078;-73
2022/04/01 07:19:17;;;;;;;22.30;12.48;;;;;;;13.90;56.32;100522.56;10357815;28;20414;-74
2022/04/01 07:24:18;;;;;;;20.05;11.88;;;;;;;14.03;55.70;100473.84;10376592;28;20038;-74
2022/04/01 07:29:21;;;;;;;21.50;14.55;;;;;;;13.87;55.10;100466.88;10387044;28;20043;-73
2022/04/01 07:34:23;;;;;;;21.55;13.25;;;;;;;14.31;54.84;100493.50;10359705;28;20046;-75
2022/04/01 07:39:24;;;;;;;26.00;13.50;;;;;;;14.44;54.81;100491.97;10361299;28;20494;-73
2022/04/01 07:44:24;;;;;;;25.02;13.75;;;;;;;14.60;54.15;100500.63;10361327;28;20180;-77
2022/04/01 07:49:25;;;;;;;25.95;13.93;;;;;;;13.97;54.22;100349.06;10359169;28;20417;-74
2022/04/01 07:54:26;;;;;;;31.88;13.60;;;;;;;14.87;53.08;100446.53;10362223;28;20136;-74
2022/04/01 07:59:27;;;;;;;23.13;12.73;;;;;;;14.28;52.36;100306.00;10376777;28;20053;-73
2022/04/01 08:04:28;;;;;;;23.73;14.52;;;;;;;15.25;51.91;100449.69;10374968;28;20091;-73
2022/04/01 08:09:28;;;;;;;24.63;14.13;;;;;;;15.42;51.38;100453.72;10373973;28;20040;-73
2022/04/01 08:14:37;;;;;;;26.75;15.75;;;;;;;15.93;49.77;100477.50;10371625;28;20484;-71
2022/04/01 08:19:39;;;;;;;54.10;25.88;;;;;;;15.29;50.04;100346.59;10374605;28;20042;-74
2022/04/01 08:24:41;;;;;;;27.50;15.90;;;;;;;16.38;50.04;100485.88;10374492;28;20100;-71
2022/04/01 08:29:59;;;;;;;27.05;14.57;;;;;;;16.64;48.82;100478.94;10373462;28;20048;-71
2022/04/01 08:35:00;;;;;;;29.77;15.80;;;;;;;15.38;48.86;100222.28;10373676;28;20038;-73
2022/04/01 08:40:01;;;;;;;46.78;14.40;;;;;;;16.68;48.57;100431.88;10373447;28;20151;-74
2022/04/01 08:45:06;;;;;;;30.70;14.95;;;;;;;16.97;48.78;100448.66;10374549;28;20053;-71
2022/04/01 08:50:08;;;;;;;45.47;14.32;;;;;;;16.85;48.02;100403.66;10373269;28;20069;-74
2022/04/01 08:55:10;;;;;;;41.67;15.30;;;;;;;17.47;47.31;100430.16;10373365;28;20056;-72
2022/04/01 09:00:11;;;;;;;37.63;14.57;;;;;;;17.69;46.76;100423.50;10373651;28;20397;-72
2022/04/01 09:05:12;;;;;;;30.20;13.70;;;;;;;17.41;46.85;100415.75;10361267;28;20429;-72
2022/04/01 09:10:13;;;;;;;20.80;13.13;;;;;;;17.40;47.07;100389.09;10372420;28;20038;-73
2022/04/01 09:15:14;;;;;;;25.00;13.68;;;;;;;17.00;45.64;100236.22;10372283;28;20050;-73
2022/04/01 09:20:15;;;;;;;25.63;14.95;;;;;;;17.54;45.71;100297.50;10371338;28;20048;-72
2022/04/01 09:25:19;;;;;;;27.33;15.60;;;;;;;18.17;44.18;100361.25;10372312;28;20045;-72
2022/04/01 09:30:28;;;;;;;27.33;14.93;;;;;;;18.22;44.43;100393.69;10372301;28;20064;-73
2022/04/01 09:35:31;;;;;;;22.27;14.88;;;;;;;17.56;44.27;100251.66;10372185;28;20401;-73
2022/04/01 09:40:36;;;;;;;25.67;14.90;;;;;;;18.36;44.59;100372.06;10372904;28;20061;-74
2022/04/01 09:45:37;;;;;;;25.70;13.80;;;;;;;18.86;43.43;100370.22;10372575;28;20077;-72
2022/04/01 09:50:40;;;;;;;17.30;11.45;;;;;;;18.46;41.88;100273.72;10372384;28;20077;-73
2022/04/01 09:55:49;;;;;;;17.30;11.07;;;;;;;19.35;41.93;100367.63;10371964;28;20080;-72
2022/04/01 10:00:52;;;;;;;13.75;10.75;;;;;;;19.50;41.78;100335.72;10371039;28;20042;-72
2022/04/01 10:05:53;;;;;;;18.77;9.30;;;;;;;19.33;41.53;100305.09;10371822;28;20501;-72
2022/04/01 10:10:55;;;;;;;16.73;10.63;;;;;;;19.58;41.66;100307.66;10368758;28;20042;-72
2022/04/01 10:15:57;;;;;;;14.50;8.40;;;;;;;18.99;41.62;100199.66;10371844;28;20073;-72
2022/04/01 10:21:00;;;;;;;12.32;8.10;;;;;;;20.02;42.19;100324.50;10371276;28;20038;-72
2022/04/01 10:26:14;;;;;;;13.97;8.03;;;;;;;20.27;42.53;100314.31;10371419;28;20052;-74
2022/04/01 10:31:15;;;;;;;13.85;8.27;;;;;;;20.35;42.90;100280.81;10374392;28;20561;-72
2022/04/01 10:36:22;;;;;;;11.98;8.43;;;;;;;20.70;42.49;100305.13;10379107;28;20052;-75
2022/04/01 10:41:23;;;;;;;12.48;5.43;;;;;;;20.84;41.83;100291.38;10378320;28;20065;-72
2022/04/01 10:46:24;;;;;;;10.25;4.80;;;;;;;20.97;40.61;100302.75;10378136;28;20069;-73
2022/04/01 10:51:44;;;;;;;18.52;6.63;;;;;;;21.04;39.45;100289.09;10378415;28;20073;-72
2022/04/01 10:57:08;;;;;;;18.48;9.52;;;;;;;21.76;38.44;100285.13;10377676;28;20065;-72
2022/04/01 11:02:13;;;;;;;13.55;4.68;;;;;;;21.13;37.55;100152.63;10377602;28;20077;-72
2022/04/01 11:07:23;;;;;;;9.30;5.15;;;;;;;21.84;37.04;100273.91;10377971;28;20049;-71
2022/04/01 11:12:29;;;;;;;21.00;11.32;;;;;;;21.68;37.56;100242.25;10375953;28;20048;-72
2022/04/01 11:17:36;;;;;;;15.63;6.85;;;;;;;21.46;38.40;100248.34;10377453;28;20494;-74
2022/04/01 11:22:42;;;;;;;30.00;18.60;;;;;;;21.32;38.53;100268.59;10377345;28;20065;-73
2022/04/01 11:27:48;;;;;;;29.17;18.45;;;;;;;21.27;37.42;100263.91;10376926;28;20042;-72
2022/04/01 11:33:00;;;;;;;27.15;16.75;;;;;;;21.32;36.98;100266.69;10376384;28;20065;-74
2022/04/01 11:38:00;;;;;;;32.53;18.63;;;;;;;21.52;37.01;100257.38;10376439;28;20058;-74
2022/04/01 11:43:04;;;;;;;8.80;4.72;;;;;;;21.33;36.55;100175.63;10359232;28;20047;-72
2022/04/01 11:48:22;;;;;;;;;;;;;;;22.60;36.76;100266.19;10335303;28;20038;-72
2022/04/01 11:53:22;;;;;;;14.80;4.32;;;;;;;22.77;35.73;100261.56;10335515;28;19917;-72
2022/04/01 11:58:25;;;;;;;10.57;3.35;;;;;;;22.72;33.47;100263.38;10327121;28;20446;-74
2022/04/01 12:03:26;;;;;;;10.95;4.20;;;;;;;22.12;34.14;100218.91;10371787;28;20053;-73
2022/04/01 12:08:41;;;;;;;8.13;3.20;;;;;;;21.94;33.81;100248.91;10366333;28;20038;-77
2022/04/01 12:13:49;;;;;;;18.13;9.90;;;;;;;21.84;34.25;100247.69;10334472;28;20387;-73
2022/04/01 12:18:50;;;;;;;27.55;13.70;;;;;;;21.76;35.31;100237.25;10335122;28;20124;-73
2022/04/01 12:23:52;;;;;;;27.15;16.15;;;;;;;21.52;37.85;100230.34;10334313;28;20046;-73
2022/04/01 12:28:53;;;;;;;17.17;9.77;;;;;;;21.19;39.37;100208.38;10330813;28;20046;-74
2022/04/01 12:33:57;;;;;;;14.10;6.90;;;;;;;20.41;40.78;100117.16;10367430;28;20038;-73
2022/04/01 12:39:06;;;;;;;14.00;6.80;;;;;;;20.28;40.63;100097.50;10367895;28;20403;-78
2022/04/01 12:44:12;;;;;;;10.80;5.90;;;;;;;19.83;41.02;100019.97;10368666;28;20054;-76
2022/04/01 12:49:19;;;;;;;11.70;5.05;;;;;;;20.68;40.68;100166.06;10368219;28;20053;-77
2022/04/01 12:54:33;;;;;;;14.85;5.70;;;;;;;21.19;40.85;100211.06;10351683;28;20045;-78
2022/04/01 12:59:40;;;;;;;23.35;14.73;;;;;;;20.63;40.37;100095.78;10366001;28;20050;-78
2022/04/01 13:04:47;;;;;;;18.55;10.65;;;;;;;21.15;39.52;100196.41;10373505;28;20521;-74
2022/04/01 13:09:56;;;;;;;21.38;5.25;;;;;;;21.12;39.29;100206.88;10363934;28;20046;-76
2022/04/01 13:15:11;;;;;;;7.88;4.10;;;;;;;20.45;39.58;100150.69;10372338;28;20034;-74
2022/04/01 13:20:14;;;;;;;14.70;4.10;;;;;;;19.67;39.05;100044.09;10369431;28;20049;-75
2022/04/01 13:25:15;;;;;;;12.20;4.30;;;;;;;19.84;39.52;100101.66;10348430;28;20084;-75
2022/04/01 13:30:17;;;;;;;13.07;4.75;;;;;;;18.99;39.83;99978.91;10372476;28;20446;-76
2022/04/01 13:35:18;;;;;;;23.33;11.25;;;;;;;19.59;40.16;100094.59;10364434;28;20053;-78
2022/04/01 13:40:19;;;;;;;31.13;11.45;;;;;;;19.65;40.85;100124.34;10350790;28;20062;-77
2022/04/01 13:45:20;;;;;;;17.52;6.38;;;;;;;19.52;40.67;100117.28;10340214;28;20092;-76
2022/04/01 13:50:21;;;;;;;15.15;6.50;;;;;;;19.91;40.83;100193.19;10333906;28;20050;-76
2022/04/01 13:55:22;;;;;;;14.18;7.30;;;;;;;19.71;41.38;100180.00;10365799;28;20410;-77
2022/04/01 14:00:23;;;;;;;19.42;8.15;;;;;;;19.44;41.10;100145.38;10364484;28;20088;-73
2022/04/01 14:05:23;;;;;;;16.80;7.50;;;;;;;18.68;41.31;100034.63;10365579;28;20049;-77
2022/04/01 14:10:24;;;;;;;33.72;17.48;;;;;;;19.00;41.80;100082.88;10365528;28;20046;-75
2022/04/01 14:15:25;;;;;;;29.17;11.38;;;;;;;19.00;41.79;100100.91;10362955;28;20613;-76
2022/04/01 14:20:28;;;;;;;50.95;24.33;;;;;;;18.43;42.62;100020.53;10346153;28;20111;-76
2022/04/01 14:25:29;;;;;;;57.57;27.63;;;;;;;19.08;42.82;100160.59;10370599;28;20038;-74
2022/04/01 14:30:30;;;;;;;38.88;17.02;;;;;;;18.87;43.27;100135.00;10359050;28;20042;-77
2022/04/01 16:02:57;;;;;;;22.10;11.13;;;;;;;14.82;54.46;100054.00;10552756;27;20423;-72
2022/04/01 16:07:58;;;;;;;26.52;12.52;;;;;;;14.29;54.00;99985.16;10557306;28;20043;-75
2022/04/01 16:13:07;;;;;;;21.95;9.23;;;;;;;15.14;54.68;100135.34;10597922;28;20035;-73
2022/04/01 16:18:08;;;;;;;36.53;22.73;;;;;;;15.31;54.38;100186.63;10546666;28;20046;-73
2022/04/01 16:23:11;;;;;;;21.52;12.55;;;;;;;13.51;54.88;99893.06;10542810;28;20080;-74
2022/04/01 16:28:12;;;;;;;18.38;9.40;;;;;;;14.47;55.01;100053.25;10567984;28;20039;-74
2022/04/01 16:33:13;;;;;;;15.68;9.70;;;;;;;15.04;55.41;100145.59;10584834;28;20161;-73
2022/04/01 16:38:14;;;;;;;31.48;19.92;;;;;;;15.28;55.70;100189.72;10587388;28;20176;-72
2022/04/01 16:43:14;;;;;;;46.22;29.55;;;;;;;14.44;56.24;100086.56;10583418;28;20039;-74
2022/04/01 16:48:15;;;;;;;24.02;12.68;;;;;;;14.99;56.42;100197.06;10585950;28;20039;-74
2022/04/01 16:53:16;;;;;;;19.60;11.07;;;;;;;13.39;56.48;99930.94;10577980;28;20113;-73
2022/04/01 16:58:18;;;;;;;20.92;12.15;;;;;;;14.70;56.65;100179.44;10566983;28;20047;-74
2022/04/01 17:03:19;;;;;;;25.98;17.20;;;;;;;14.67;57.12;100174.50;10517607;28;20040;-76
2022/04/01 17:13:42;;;;;;;22.58;9.95;;;;;;;14.32;57.59;100141.59;10521770;28;20084;-75
2022/04/01 17:18:43;;;;;;;22.88;7.80;;;;;;;14.27;57.88;100149.34;10500597;28;20468;-74
2022/04/01 17:23:45;;;;;;;12.68;6.47;;;;;;;13.74;57.57;100055.59;10500919;28;20071;-75
2022/04/01 17:28:46;;;;;;;14.40;7.18;;;;;;;14.44;57.98;100193.44;10497106;28;20044;-73
2022/04/01 17:33:48;;;;;;;15.63;7.95;;;;;;;13.70;59.08;100119.22;10499723;28;20477;-73
2022/04/01 17:38:52;;;;;;;27.30;18.20;;;;;;;13.96;59.61;100189.84;10510574;28;20463;-73
2022/04/01 17:43:53;;;;;;;48.90;33.67;;;;;;;13.54;59.45;100144.31;10523706;28;20048;-73
2022/04/01 17:48:54;;;;;;;30.60;17.58;;;;;;;13.45;59.54;100140.13;10541552;28;20047;-72
2022/04/01 17:53:55;;;;;;;23.52;16.73;;;;;;;13.70;60.04;100169.94;10541506;28;20040;-74
2022/04/01 17:58:59;;;;;;;21.48;13.38;;;;;;;13.46;59.99;100137.28;10541241;28;20454;-72
2022/04/01 18:04:03;;;;;;;22.17;14.57;;;;;;;12.15;60.78;99938.50;10536323;28;20132;-73
2022/04/01 18:09:07;;;;;;;20.97;12.60;;;;;;;13.64;60.55;100174.19;10541525;28;20338;-73
2022/04/01 18:14:09;;;;;;;20.33;11.07;;;;;;;13.58;60.74;100163.44;10558980;28;20048;-73
2022/04/01 18:19:11;;;;;;;22.48;11.13;;;;;;;13.38;60.95;100152.59;10557255;28;20039;-74
2022/04/01 18:24:11;;;;;;;16.10;9.73;;;;;;;12.94;61.10;100095.72;10561367;28;20040;-73
2022/04/01 18:29:24;;;;;;;15.55;9.60;;;;;;;13.47;62.40;100165.63;10555550;28;20035;-73
2022/04/01 18:34:29;;;;;;;15.43;9.52;;;;;;;13.28;62.39;100144.91;10548875;28;20039;-72
2022/04/01 18:39:33;;;;;;;20.05;8.50;;;;;;;13.46;61.88;100163.13;10548145;28;20775;-72
2022/04/01 18:44:37;;;;;;;14.80;10.77;;;;;;;13.40;61.81;100147.88;10548161;28;20089;-73
2022/04/01 18:49:38;;;;;;;17.33;9.63;;;;;;;12.95;61.54;100078.72;10551894;28;20043;-74
2022/04/01 18:54:39;;;;;;;16.15;9.25;;;;;;;13.08;61.43;100082.53;10479535;28;20515;-72
2022/04/01 18:59:40;;;;;;;18.23;11.57;;;;;;;12.83;62.12;100071.38;10496780;28;20209;-72
2022/04/01 19:04:51;;;;;;;25.17;9.88;;;;;;;13.26;62.16;100136.28;10496417;28;20036;-74
2022/04/01 19:09:55;;;;;;;19.90;10.77;;;;;;;12.97;62.71;100098.00;10478920;28;20044;-72
2022/04/01 19:15:03;;;;;;;20.65;9.27;;;;;;;12.85;62.65;100083.53;10506266;28;20048;-72
2022/04/01 19:20:07;;;;;;;16.52;9.48;;;;;;;13.11;62.55;100120.31;10486958;28;20060;-72
2022/04/01 19:25:11;;;;;;;16.70;9.70;;;;;;;12.19;62.67;99990.34;10495473;28;20498;-72
2022/04/01 19:30:13;;;;;;;17.35;10.25;;;;;;;12.85;63.06;100104.84;10478908;28;20102;-73
2022/04/01 19:35:16;;;;;;;15.82;9.57;;;;;;;11.84;63.30;99960.00;10495915;28;20040;-73
2022/04/01 19:40:17;;;;;;;14.50;9.27;;;;;;;12.70;63.29;100094.22;10495139;28;20044;-73
2022/04/01 19:45:18;;;;;;;24.50;10.77;;;;;;;12.24;62.84;100003.94;10497022;28;20494;-73
2022/04/01 19:50:20;;;;;;;18.42;9.48;;;;;;;12.56;62.20;100037.31;10495442;28;20411;-73
2022/04/01 19:55:22;;;;;;;13.73;8.50;;;;;;;11.32;61.30;99839.44;10477041;28;20032;-72
2022/04/01 20:00:24;;;;;;;16.42;9.88;;;;;;;10.62;60.98;99712.34;10495557;28;20116;-73
2022/04/01 20:05:25;;;;;;;17.48;9.98;;;;;;;12.30;61.85;100021.84;10477930;28;20041;-74
2022/04/01 20:10:26;;;;;;;25.15;11.77;;;;;;;11.54;62.11;99922.78;10499238;28;20103;-73
2022/04/01 20:15:26;;;;;;;24.25;10.13;;;;;;;12.22;62.45;100048.56;10503288;28;20122;-73
2022/04/01 20:20:27;;;;;;;41.35;18.30;;;;;;;12.24;62.63;100094.50;10476980;28;20040;-73
2022/04/01 20:25:28;;;;;;;50.28;22.92;;;;;;;12.00;62.92;100062.84;10495535;28;20055;-73
2022/04/01 20:30:29;;;;;;;41.95;20.20;;;;;;;11.58;63.20;100027.81;10494288;28;20060;-73
2022/04/01 20:35:30;;;;;;;39.30;18.98;;;;;;;11.13;63.62;99975.59;10479290;28;20045;-73
2022/04/01 20:40:31;;;;;;;32.47;17.58;;;;;;;11.17;64.02;100035.34;10503101;28;20082;-73
2022/04/01 20:45:32;;;;;;;25.33;13.57;;;;;;;10.30;64.45;99908.19;10502460;28;20044;-73
2022/04/01 20:50:33;;;;;;;26.35;10.77;;;;;;;11.20;64.09;100016.38;10502818;28;20520;-73
2022/04/01 20:55:33;;;;;;;15.15;10.10;;;;;;;11.05;63.95;99996.91;10502550;28;20042;-73
2022/04/01 21:00:34;;;;;;;17.08;10.05;;;;;;;11.38;63.78;100016.06;10501693;28;20052;-73
2022/04/01 21:05:35;;;;;;;15.10;10.18;;;;;;;10.64;63.84;99894.44;10483090;28;20048;-73
2022/04/01 21:10:36;;;;;;;18.60;10.38;;;;;;;11.23;64.04;100021.34;10501248;28;20064;-74
2022/04/01 21:15:37;;;;;;;13.65;9.65;;;;;;;11.29;64.00;100023.28;10482558;28;20036;-74
2022/04/01 21:20:38;;;;;;;39.75;12.65;;;;;;;10.88;64.16;99974.97;10507516;28;20097;-74
2022/04/01 21:30:57;;;;;;;14.52;8.63;;;;;;;10.93;64.71;100015.94;10501240;28;21220;-73
2022/04/01 21:35:58;;;;;;;45.83;21.25;;;;;;;11.11;64.67;100010.31;10488344;28;20127;-74
2022/04/01 21:40:59;;;;;;;23.65;12.80;;;;;;;10.91;64.67;99948.03;10517835;28;20048;-73
2022/04/01 21:46:00;;;;;;;23.17;11.77;;;;;;;10.58;64.49;99928.88;10522849;28;20044;-73
2022/04/01 21:51:00;;;;;;;26.77;12.50;;;;;;;9.85;65.30;99839.94;10499875;28;20133;-73
2022/04/01 21:56:01;;;;;;;22.98;12.23;;;;;;;10.43;65.86;99947.41;10498403;28;20043;-73
2022/04/01 22:01:02;;;;;;;21.98;12.57;;;;;;;10.45;66.29;99956.84;10499158;28;20059;-73
2022/04/01 22:06:03;;;;;;;20.67;11.75;;;;;;;10.43;66.67;99956.19;10499128;28;20048;-73
2022/04/01 22:11:04;;;;;;;20.10;11.55;;;;;;;9.29;66.75;99763.19;10499072;28;20065;-73
2022/04/01 22:16:07;;;;;;;20.25;12.27;;;;;;;9.43;67.19;99741.25;10499388;28;20520;-73
2022/04/01 22:21:07;;;;;;;21.02;10.90;;;;;;;9.99;67.06;99810.84;10498997;28;20055;-73
2022/04/01 22:26:08;;;;;;;23.02;11.63;;;;;;;10.49;67.39;99899.72;10497248;28;20041;-73
2022/04/01 22:31:09;;;;;;;21.35;13.50;;;;;;;10.48;68.39;99927.28;10502570;28;20130;-73
2022/04/01 22:36:10;;;;;;;26.92;13.73;;;;;;;9.47;68.36;99784.16;10520502;28;20404;-73
2022/04/01 22:41:11;;;;;;;24.33;13.23;;;;;;;10.35;68.78;99932.38;10508394;28;20127;-73
2022/04/01 22:46:13;;;;;;;20.98;12.98;;;;;;;10.07;69.03;99890.38;10527637;28;20119;-73
2022/04/01 22:51:14;;;;;;;24.20;11.60;;;;;;;9.55;68.73;99829.19;10539799;28;20411;-73
2022/04/01 22:56:14;;;;;;;21.60;13.10;;;;;;;9.42;69.20;99820.94;10520407;28;20032;-73
2022/04/01 23:01:15;;;;;;;28.73;16.67;;;;;;;8.96;68.96;99713.00;10519911;28;20071;-73
2022/04/01 23:06:16;;;;;;;23.60;13.48;;;;;;;10.23;69.40;99928.41;10539025;28;20477;-73
2022/04/01 23:11:17;;;;;;;20.42;12.50;;;;;;;9.66;69.06;99822.63;10520370;28;20495;-73
2022/04/01 23:16:19;;;;;;;27.73;14.00;;;;;;;10.11;69.37;99916.56;10538564;28;20063;-73
2022/04/01 23:21:20;;;;;;;22.75;12.82;;;;;;;9.97;69.68;99907.53;10537798;28;20047;-73
2022/04/01 23:26:21;;;;;;;33.92;19.98;;;;;;;10.08;69.41;99904.50;10539264;28;20048;-73
2022/04/01 23:31:21;;;;;;;27.42;16.02;;;;;;;9.95;69.85;99910.34;10537934;28;20130;-73
2022/04/01 23:36:22;;;;;;;27.40;14.63;;;;;;;9.60;70.25;99886.00;10537891;28;20048;-73
2022/04/01 23:41:26;;;;;;;22.42;12.50;;;;;;;8.89;70.70;99780.94;10531262;28;20043;-73
2022/04/01 23:46:27;;;;;;;39.60;23.83;;;;;;;9.40;71.15;99868.03;10505057;28;20147;-73
2022/04/01 23:51:28;;;;;;;36.20;20.45;;;;;;;8.84;71.50;99786.72;10495746;28;20443;-73
2022/04/01 23:56:29;;;;;;;27.38;16.13;;;;;;;9.37;71.56;99874.50;10495164;28;20044;-73
